Ryuhomaru — JD2639 — position and weather

sailwx.info

Track history (hours):
 
Tides and Currents Weather Stations Pressure Air Temp Water Temp Dewpoint Dewpoint Depression Visibility Wind Speed Wind Dir Waves Ship Positions

Ryuhomaru

Last reported at 2014-Nov-01 03:33 UTC. Time now 2014-Nov-01 04:12 UTC.
Position N 34°33' E 135°27'.

Length 42 m; draft 3.5 m.

Type: Tug. MMSI: 431000586.

Date/timePositionNaut miles runAvg speedWind from/ knotsBaromVisibWave heightAir tempDewpointWater temp
2014-Nov-01 03:33N 34°33' E 135°27'0 0.0
2014-Nov-01 02:33N 34°33' E 135°27'3 3.0
2014-Nov-01 01:29N 34°31' E 135°24'3 1.7
2014-Oct-31 23:33N 34°33' E 135°27'0 0.0
2014-Oct-31 22:33N 34°33' E 135°27'0 0.0
2014-Oct-31 21:33N 34°33' E 135°27'0 0.0
2014-Oct-31 09:10N 34°33' E 135°27'4 5.8
2014-Oct-31 08:33N 34°36' E 135°23'4 4.2
2014-Oct-31 07:33N 34°40' E 135°25'0 0.2
2014-Oct-31 06:33N 34°40' E 135°24'0 0.0
2014-Oct-31 05:32N 34°40' E 135°24'0 0.0
2014-Oct-31 04:31N 34°40' E 135°24'0 0.0
2014-Oct-31 03:33N 34°40' E 135°24'0 0.0
2014-Oct-31 02:33N 34°40' E 135°24'1 1.4
2014-Oct-31 01:33N 34°39' E 135°26'2 2.4
2014-Oct-31 00:33N 34°37' E 135°23'1 0.5
2014-Oct-30 23:33N 34°37' E 135°23'5 4.4
2014-Oct-30 22:31N 34°33' E 135°25'1 1.1
2014-Oct-30 21:33N 34°33' E 135°27'0 0.0
2014-Oct-30 06:30N 34°33' E 135°27'7 7.0
2014-Oct-30 05:33N 34°31' E 135°19'1413.5
2014-Oct-30 04:32N 34°22' E 135°06'4 3.4
2014-Oct-30 03:16N 34°22' E 135°01'1014.1
2014-Oct-30 02:33N 34°28' E 135°10'1211.6
2014-Oct-30 01:33N 34°33' E 135°23'1 0.6
2014-Oct-30 00:33N 34°33' E 135°24'2 2.4
2014-Oct-29 23:33N 34°33' E 135°27'0 0.0
2014-Oct-29 22:33N 34°33' E 135°27'0 0.0
2014-Oct-29 06:07N 34°33' E 135°27'0 0.0
2014-Oct-29 05:33N 34°33' E 135°27'0 0.0
2014-Oct-29 04:33N 34°33' E 135°27'0 0.0
2014-Oct-29 03:17N 34°33' E 135°27'0 0.0
2014-Oct-29 02:33N 34°33' E 135°27'2 1.9
2014-Oct-29 01:33N 34°33' E 135°24'1 0.7
2014-Oct-29 00:30N 34°33' E 135°23'7 7.9
2014-Oct-28 23:33N 34°31' E 135°15'2411.8
2014-Oct-28 21:33N 34°11' E 134°60'10 8.3
2014-Oct-28 20:23N 34°21' E 135°00'1113.5
2014-Oct-28 19:33N 34°28' E 135°11'1312.7
2014-Oct-28 18:33N 34°33' E 135°25'2 1.6
2014-Oct-28 17:34N 34°33' E 135°27'0 0.0
2014-Oct-28 04:33N 34°33' E 135°27'0 0.0
2014-Oct-28 03:34N 34°33' E 135°27'0 0.0
2014-Oct-28 02:33N 34°33' E 135°27'0 0.0
2014-Oct-28 01:33N 34°33' E 135°27'1 0.5
2014-Oct-28 00:34N 34°33' E 135°26'1 0.5
2014-Oct-27 23:32N 34°33' E 135°27'0 0.0
2014-Oct-27 22:33N 34°33' E 135°27'0 0.0
2014-Oct-27 06:03N 34°33' E 135°27'1 1.2
2014-Oct-27 05:33N 34°33' E 135°26'1 0.5
2014-Oct-27 04:33N 34°33' E 135°25'3 3.0
2014-Oct-27 03:33N 34°34' E 135°22'4 3.7
2014-Oct-27 02:27N 34°33' E 135°27'0 0.0
2014-Oct-27 01:33N 34°33' E 135°27'0 0.0
2014-Oct-27 00:34N 34°33' E 135°27'0 0.0
2014-Oct-26 23:33N 34°33' E 135°27'0 0.0
2014-Oct-26 22:33N 34°33' E 135°27'2 0.1
2014-Oct-26 04:26N 34°33' E 135°24'1 1.2
2014-Oct-26 03:31N 34°33' E 135°25'1 1.1
2014-Oct-26 02:33N 34°33' E 135°27'0 0.0
2014-Oct-26 01:33N 34°33' E 135°27'0 0.0
2014-Oct-26 00:15N 34°33' E 135°27'4 5.5
2014-Oct-25 23:33N 34°32' E 135°22'2 2.2
2014-Oct-25 22:33N 34°29' E 135°22'2 2.1
2014-Oct-25 21:33N 34°32' E 135°22'4 4.2
2014-Oct-25 20:32N 34°33' E 135°27'0 0.0
2014-Oct-24 07:06N 34°33' E 135°27'3 4.9
2014-Oct-24 06:34N 34°33' E 135°23'4 4.1
2014-Oct-24 05:31N 34°29' E 135°20'7 6.7
2014-Oct-24 04:33N 34°33' E 135°27'0 0.1
2014-Oct-24 02:16N 34°33' E 135°27'0 0.0
2014-Oct-24 01:30N 34°33' E 135°27'0 0.0
2014-Oct-24 00:32N 34°33' E 135°27'1 0.4
2014-Oct-23 23:11N 34°34' E 135°26'4 4.5
2014-Oct-23 22:18N 34°33' E 135°21'2 3.1
2014-Oct-23 21:33N 34°34' E 135°19'7 5.7
2014-Oct-23 20:24N 34°33' E 135°27'0 0.0
2014-Oct-23 19:32N 34°33' E 135°27'0 0.0
2014-Oct-23 07:33N 34°33' E 135°27'6 6.2
2014-Oct-23 06:33N 34°39' E 135°24'8 2.7
2014-Oct-23 03:33N 34°31' E 135°24'0 0.0
2014-Oct-23 01:27N 34°31' E 135°24'2 2.5
2014-Oct-23 00:33N 34°33' E 135°24'2 2.4
2014-Oct-22 23:34N 34°33' E 135°27'0 0.0
2014-Oct-22 05:30N 34°33' E 135°27'1 1.3
2014-Oct-22 04:23N 34°33' E 135°25'  
Track history (hours):
 
Tides and Currents Weather Stations Pressure Air Temp Water Temp Dewpoint Dewpoint Depression Visibility Wind Speed Wind Dir Waves Ship Positions

Ryuhomaru

Last reported at 2014-Nov-01 03:33 UTC. Time now 2014-Nov-01 04:12 UTC.
Position N 34°33' E 135°27'.

Length 42 m; draft 3.5 m.

Type: Tug. MMSI: 431000586.

Date/timePositionNaut miles runAvg speedWind from/ knotsBaromVisibWave heightAir tempDewpointWater temp
2014-Nov-01 03:33N 34°33' E 135°27'0 0.0
2014-Nov-01 02:33N 34°33' E 135°27'3 3.0
2014-Nov-01 01:29N 34°31' E 135°24'3 1.7
2014-Oct-31 23:33N 34°33' E 135°27'0 0.0
2014-Oct-31 22:33N 34°33' E 135°27'0 0.0
2014-Oct-31 21:33N 34°33' E 135°27'0 0.0
2014-Oct-31 09:10N 34°33' E 135°27'4 5.8
2014-Oct-31 08:33N 34°36' E 135°23'4 4.2
2014-Oct-31 07:33N 34°40' E 135°25'0 0.2
2014-Oct-31 06:33N 34°40' E 135°24'0 0.0
2014-Oct-31 05:32N 34°40' E 135°24'0 0.0
2014-Oct-31 04:31N 34°40' E 135°24'0 0.0
2014-Oct-31 03:33N 34°40' E 135°24'0 0.0
2014-Oct-31 02:33N 34°40' E 135°24'1 1.4
2014-Oct-31 01:33N 34°39' E 135°26'2 2.4
2014-Oct-31 00:33N 34°37' E 135°23'1 0.5
2014-Oct-30 23:33N 34°37' E 135°23'5 4.4
2014-Oct-30 22:31N 34°33' E 135°25'1 1.1
2014-Oct-30 21:33N 34°33' E 135°27'0 0.0
2014-Oct-30 06:30N 34°33' E 135°27'7 7.0
2014-Oct-30 05:33N 34°31' E 135°19'1413.5
2014-Oct-30 04:32N 34°22' E 135°06'4 3.4
2014-Oct-30 03:16N 34°22' E 135°01'1014.1
2014-Oct-30 02:33N 34°28' E 135°10'1211.6
2014-Oct-30 01:33N 34°33' E 135°23'1 0.6
2014-Oct-30 00:33N 34°33' E 135°24'2 2.4
2014-Oct-29 23:33N 34°33' E 135°27'0 0.0
2014-Oct-29 22:33N 34°33' E 135°27'0 0.0
2014-Oct-29 06:07N 34°33' E 135°27'0 0.0
2014-Oct-29 05:33N 34°33' E 135°27'0 0.0
2014-Oct-29 04:33N 34°33' E 135°27'0 0.0
2014-Oct-29 03:17N 34°33' E 135°27'0 0.0
2014-Oct-29 02:33N 34°33' E 135°27'2 1.9
2014-Oct-29 01:33N 34°33' E 135°24'1 0.7
2014-Oct-29 00:30N 34°33' E 135°23'7 7.9
2014-Oct-28 23:33N 34°31' E 135°15'2411.8
2014-Oct-28 21:33N 34°11' E 134°60'10 8.3
2014-Oct-28 20:23N 34°21' E 135°00'1113.5
2014-Oct-28 19:33N 34°28' E 135°11'1312.7
2014-Oct-28 18:33N 34°33' E 135°25'2 1.6
2014-Oct-28 17:34N 34°33' E 135°27'0 0.0
2014-Oct-28 04:33N 34°33' E 135°27'0 0.0
2014-Oct-28 03:34N 34°33' E 135°27'0 0.0
2014-Oct-28 02:33N 34°33' E 135°27'0 0.0
2014-Oct-28 01:33N 34°33' E 135°27'1 0.5
2014-Oct-28 00:34N 34°33' E 135°26'1 0.5
2014-Oct-27 23:32N 34°33' E 135°27'0 0.0
2014-Oct-27 22:33N 34°33' E 135°27'0 0.0
2014-Oct-27 06:03N 34°33' E 135°27'1 1.2
2014-Oct-27 05:33N 34°33' E 135°26'1 0.5
2014-Oct-27 04:33N 34°33' E 135°25'3 3.0
2014-Oct-27 03:33N 34°34' E 135°22'4 3.7
2014-Oct-27 02:27N 34°33' E 135°27'0 0.0
2014-Oct-27 01:33N 34°33' E 135°27'0 0.0
2014-Oct-27 00:34N 34°33' E 135°27'0 0.0
2014-Oct-26 23:33N 34°33' E 135°27'0 0.0
2014-Oct-26 22:33N 34°33' E 135°27'2 0.1
2014-Oct-26 04:26N 34°33' E 135°24'1 1.2
2014-Oct-26 03:31N 34°33' E 135°25'1 1.1
2014-Oct-26 02:33N 34°33' E 135°27'0 0.0
2014-Oct-26 01:33N 34°33' E 135°27'0 0.0
2014-Oct-26 00:15N 34°33' E 135°27'4 5.5
2014-Oct-25 23:33N 34°32' E 135°22'2 2.2
2014-Oct-25 22:33N 34°29' E 135°22'2 2.1
2014-Oct-25 21:33N 34°32' E 135°22'4 4.2
2014-Oct-25 20:32N 34°33' E 135°27'0 0.0
2014-Oct-24 07:06N 34°33' E 135°27'3 4.9
2014-Oct-24 06:34N 34°33' E 135°23'4 4.1
2014-Oct-24 05:31N 34°29' E 135°20'7 6.7
2014-Oct-24 04:33N 34°33' E 135°27'0 0.1
2014-Oct-24 02:16N 34°33' E 135°27'0 0.0
2014-Oct-24 01:30N 34°33' E 135°27'0 0.0
2014-Oct-24 00:32N 34°33' E 135°27'1 0.4
2014-Oct-23 23:11N 34°34' E 135°26'4 4.5
2014-Oct-23 22:18N 34°33' E 135°21'2 3.1
2014-Oct-23 21:33N 34°34' E 135°19'7 5.7
2014-Oct-23 20:24N 34°33' E 135°27'0 0.0
2014-Oct-23 19:32N 34°33' E 135°27'0 0.0
2014-Oct-23 07:33N 34°33' E 135°27'6 6.2
2014-Oct-23 06:33N 34°39' E 135°24'8 2.7
2014-Oct-23 03:33N 34°31' E 135°24'0 0.0
2014-Oct-23 01:27N 34°31' E 135°24'2 2.5
2014-Oct-23 00:33N 34°33' E 135°24'2 2.4
2014-Oct-22 23:34N 34°33' E 135°27'0 0.0
2014-Oct-22 05:30N 34°33' E 135°27'1 1.3
2014-Oct-22 04:23N 34°33' E 135°25'  

Dump ship's entire track history